Darstellungsparameter: Aktuell verwendete Einstellungen:
Skalierung der Graphiken ... ?
xyx+y,   Skalierungsfaktor:      Skalierung: Modus: x, Faktor: 1
Darstellungszeitraum ... ?
Vom - - bis: - -   Zeitraum: 16.02.2019 - 18.02.2019
Min/Max/Avg-Anzeige ... ?
Zeige MMA aktuell
Zeige MMA Monat
Zeige MMA alles
Zeige --A aktuell
Zeige --A Monat
Zeige --A alles
Keine MMA-Anzeige
MMA:
Keine MMA-Graphiken
MMA-Basis: 16.02.2019 - 18.02.2019
Quicknavigation für Darstellung... ?
Tage:      1T, 2T, 3T, 5T -1T -2T -3T -5T +1T +2T +3T +5T
Wochen: 1W, 2W, 3W -1W -2W -3W +1W +2W +3W
Monate: 1M, 3M, 6M -1M -3M -6M +1M +3M +6M
Jahre:    1J, 3J, 5J, 10J -1J -3J -5J -10J +1J +3J +5J +10J
Nutze für die Darstellung ... ?
Originaldaten oder Mittelwerte auf ...
Stundenbasis Tagesbasis Wochenbasis
Monatsbasis Jahresbasis      Datenbasis: Original-Daten
Darstellen als:
Statistik (Auto) Statistik J:M      Darstellung:
Zur Graphik,    zurück zur Übersicht aller Sensoren.
 
Tabellarische Datenbersicht: ?
 
Sensor: Nr:Datum:Temp:Feuchte:Taupunkt:
Aussen-T/F 1 16-02-2019 00:00:00 0.8 C 93 % -0.2 C
2 16-02-2019 00:05:00 0.8 C 93 % -0.2 C
3 16-02-2019 00:10:00 0.7 C 92 % -0.45 C
4 16-02-2019 00:15:00 0.6 C 93 % -0.4 C
5 16-02-2019 00:20:00 0.5 C 92 % -0.65 C
6 16-02-2019 00:25:00 0.4 C 93 % -0.6 C
7 16-02-2019 00:30:00 0.3 C 93 % -0.7 C
8 16-02-2019 00:35:00 0.3 C 93 % -0.7 C
9 16-02-2019 00:40:00 0.3 C 93 % -0.7 C
10 16-02-2019 00:45:00 0.2 C 93 % -0.79 C
11 16-02-2019 00:50:00 0.1 C 93 % -0.89 C
12 16-02-2019 00:55:00 0 C 93 % -0.99 C
13 16-02-2019 01:00:00 -0.1 C 93 % -1.09 C
14 16-02-2019 01:05:00 0 C 94 % -0.85 C
15 16-02-2019 01:10:00 -0.1 C 94 % -0.95 C
16 16-02-2019 01:15:00 -0.2 C 93 % -1.19 C
17 16-02-2019 01:20:00 -0.2 C 94 % -1.05 C
18 16-02-2019 01:25:00 -0.2 C 94 % -1.05 C
19 16-02-2019 01:30:00 -0.1 C 94 % -0.95 C
20 16-02-2019 01:35:00 -0.1 C 94 % -0.95 C
21 16-02-2019 01:40:00 -0.1 C 94 % -0.95 C
22 16-02-2019 01:45:00 -0.2 C 94 % -1.05 C
23 16-02-2019 01:50:00 -0.2 C 94 % -1.05 C
24 16-02-2019 01:55:00 -0.3 C 94 % -1.15 C
25 16-02-2019 02:00:00 -0.3 C 94 % -1.15 C
Sensor: Nr:Datum:Temp:Feuchte:Taupunkt:
Aussen-T/F 26 16-02-2019 02:05:00 -0.3 C 94 % -1.15 C
27 16-02-2019 02:10:00 -0.3 C 95 % -1 C
28 16-02-2019 02:15:00 -0.2 C 95 % -0.9 C
29 16-02-2019 02:20:00 -0.3 C 94 % -1.15 C
30 16-02-2019 02:25:00 -0.4 C 94 % -1.25 C
31 16-02-2019 02:30:00 -0.5 C 94 % -1.34 C
32 16-02-2019 02:35:00 -0.7 C 94 % -1.54 C
33 16-02-2019 02:40:00 -0.7 C 94 % -1.54 C
34 16-02-2019 02:45:00 -0.7 C 95 % -1.4 C
35 16-02-2019 02:50:00 -0.7 C 95 % -1.4 C
36 16-02-2019 02:55:00 -0.7 C 95 % -1.4 C
37 16-02-2019 03:00:00 -0.8 C 94 % -1.64 C
38 16-02-2019 03:05:00 -0.8 C 94 % -1.64 C
39 16-02-2019 03:10:00 -0.9 C 94 % -1.74 C
40 16-02-2019 03:15:00 -0.9 C 95 % -1.6 C
41 16-02-2019 03:20:00 -0.9 C 95 % -1.6 C
42 16-02-2019 03:25:00 -0.8 C 95 % -1.5 C
43 16-02-2019 03:30:00 -0.6 C 95 % -1.3 C
44 16-02-2019 03:35:00 -0.6 C 95 % -1.3 C
45 16-02-2019 03:40:00 -0.7 C 95 % -1.4 C
46 16-02-2019 03:45:00 -0.7 C 95 % -1.4 C
47 16-02-2019 03:50:00 -0.7 C 95 % -1.4 C
48 16-02-2019 03:55:00 -0.7 C 95 % -1.4 C
49 16-02-2019 04:00:00 -0.8 C 95 % -1.5 C
50 16-02-2019 04:05:00 -0.6 C 95 % -1.3 C
Sensor: Nr:Datum:Temp:Feuchte:Taupunkt:
Aussen-T/F 51 16-02-2019 04:10:00 -0.6 C 95 % -1.3 C
52 16-02-2019 04:15:00 -0.7 C 95 % -1.4 C
53 16-02-2019 04:20:00 -0.8 C 95 % -1.5 C
54 16-02-2019 04:25:00 -0.9 C 95 % -1.6 C
55 16-02-2019 04:30:00 -1 C 95 % -1.7 C
56 16-02-2019 04:35:00 -1 C 95 % -1.7 C
57 16-02-2019 04:40:00 -1.1 C 95 % -1.8 C
58 16-02-2019 04:45:00 -1.2 C 95 % -1.9 C
59 16-02-2019 04:50:00 -1.2 C 95 % -1.9 C
60 16-02-2019 04:55:00 -1.2 C 95 % -1.9 C
61 16-02-2019 05:00:00 -1.1 C 95 % -1.8 C
62 16-02-2019 05:05:00 -0.9 C 96 % -1.46 C
63 16-02-2019 05:10:00 -0.8 C 95 % -1.5 C
64 16-02-2019 05:15:00 -0.9 C 95 % -1.6 C
65 16-02-2019 05:20:00 -1.2 C 95 % -1.9 C
66 16-02-2019 05:25:00 -1.3 C 95 % -2 C
67 16-02-2019 05:30:00 -1.4 C 95 % -2.1 C
68 16-02-2019 05:35:00 -1.5 C 95 % -2.19 C
69 16-02-2019 05:40:00 -1.4 C 95 % -2.1 C
70 16-02-2019 05:45:00 -1.1 C 96 % -1.66 C
71 16-02-2019 05:50:00 -0.9 C 96 % -1.46 C
72 16-02-2019 05:55:00 -0.9 C 96 % -1.46 C
73 16-02-2019 06:00:00 -1.1 C 95 % -1.8 C
74 16-02-2019 06:05:00 -1.3 C 95 % -2 C
75 16-02-2019 06:10:00 -1.4 C 95 % -2.1 C
Sensor: Nr:Datum:Temp:Feuchte:Taupunkt:
Aussen-T/F 76 16-02-2019 06:15:00 -1.3 C 95 % -2 C
77 16-02-2019 06:20:00 -1.2 C 96 % -1.75 C
78 16-02-2019 06:25:00 -1.2 C 95 % -1.9 C
79 16-02-2019 06:30:00 -1.3 C 95 % -2 C
80 16-02-2019 06:35:00 -1.2 C 95 % -1.9 C
81 16-02-2019 06:40:00 -1.2 C 96 % -1.75 C
82 16-02-2019 06:45:00 -1.2 C 96 % -1.75 C
83 16-02-2019 06:50:00 -1.1 C 96 % -1.66 C
84 16-02-2019 06:55:00 -1 C 96 % -1.56 C
85 16-02-2019 07:00:00 -1.1 C 95 % -1.8 C
86 16-02-2019 07:05:00 -1.2 C 95 % -1.9 C
87 16-02-2019 07:10:00 -1.4 C 95 % -2.1 C
88 16-02-2019 07:15:00 -1.6 C 95 % -2.29 C
89 16-02-2019 07:20:00 -1.7 C 95 % -2.39 C
90 16-02-2019 07:25:00 -1.7 C 95 % -2.39 C
91 16-02-2019 07:30:00 -1.7 C 95 % -2.39 C
92 16-02-2019 07:35:00 -1.7 C 95 % -2.39 C
93 16-02-2019 07:40:00 -1.8 C 95 % -2.49 C
94 16-02-2019 07:45:00 -1.9 C 95 % -2.59 C
95 16-02-2019 07:50:00 -1.9 C 95 % -2.59 C
96 16-02-2019 07:55:00 -2 C 95 % -2.69 C
97 16-02-2019 08:00:00 -2 C 95 % -2.69 C
98 16-02-2019 08:05:00 -1.9 C 96 % -2.45 C
99 16-02-2019 08:10:00 -1.8 C 96 % -2.35 C
100 16-02-2019 08:15:00 -1.8 C 96 % -2.35 C
Sensor: Nr:Datum:Temp:Feuchte:Taupunkt:
Aussen-T/F 101 16-02-2019 08:20:00 -1.8 C 95 % -2.49 C
102 16-02-2019 08:25:00 -1.8 C 95 % -2.49 C
103 16-02-2019 08:30:00 -1.8 C 95 % -2.49 C
104 16-02-2019 08:35:00 -1.8 C 95 % -2.49 C
105 16-02-2019 08:40:00 -1.8 C 95 % -2.49 C
106 16-02-2019 08:45:00 -1.7 C 96 % -2.25 C
107 16-02-2019 08:50:00 -1.6 C 96 % -2.15 C
108 16-02-2019 08:55:00 -1.6 C 96 % -2.15 C
109 16-02-2019 09:00:00 -1.4 C 96 % -1.95 C
110 16-02-2019 09:05:00 -1.3 C 96 % -1.85 C
111 16-02-2019 09:10:00 -1.2 C 96 % -1.75 C
112 16-02-2019 09:15:00 -1.2 C 96 % -1.75 C
113 16-02-2019 09:20:00 -1.2 C 96 % -1.75 C
114 16-02-2019 09:25:00 -1.2 C 96 % -1.75 C
115 16-02-2019 09:30:00 -1.2 C 96 % -1.75 C
116 16-02-2019 09:35:00 -1.1 C 96 % -1.66 C
117 16-02-2019 09:40:00 -0.9 C 96 % -1.46 C
118 16-02-2019 09:45:00 -0.8 C 96 % -1.36 C
119 16-02-2019 09:50:00 -0.8 C 96 % -1.36 C
120 16-02-2019 09:55:00 -0.8 C 96 % -1.36 C
121 16-02-2019 10:00:00 -0.8 C 96 % -1.36 C
122 16-02-2019 10:05:00 -0.8 C 96 % -1.36 C
123 16-02-2019 10:10:00 -0.7 C 96 % -1.26 C
124 16-02-2019 10:15:00 -0.6 C 96 % -1.16 C
125 16-02-2019 10:20:00 -0.6 C 96 % -1.16 C
Sensor: Nr:Datum:Temp:Feuchte:Taupunkt:
Aussen-T/F 126 16-02-2019 10:25:00 -0.5 C 96 % -1.06 C
127 16-02-2019 10:30:00 -0.3 C 96 % -0.86 C
128 16-02-2019 10:35:00 0.1 C 97 % -0.32 C
129 16-02-2019 10:40:00 0.2 C 97 % -0.22 C
130 16-02-2019 10:45:00 0.3 C 97 % -0.12 C
131 16-02-2019 10:50:00 0.4 C 97 % -0.02 C
132 16-02-2019 10:55:00 0.6 C 97 % 0.18 C
133 16-02-2019 11:00:00 0.7 C 97 % 0.28 C
134 16-02-2019 11:05:00 0.9 C 97 % 0.48 C
135 16-02-2019 11:10:00 1.3 C 97 % 0.88 C
136 16-02-2019 11:15:00 1.6 C 97 % 1.18 C
137 16-02-2019 11:20:00 1.9 C 97 % 1.48 C
138 16-02-2019 11:25:00 2.1 C 97 % 1.67 C
139 16-02-2019 11:30:00 2.3 C 97 % 1.87 C
140 16-02-2019 11:35:00 2.6 C 97 % 2.17 C
141 16-02-2019 11:40:00 2.8 C 97 % 2.37 C
142 16-02-2019 11:45:00 3.1 C 97 % 2.67 C
143 16-02-2019 11:50:00 3.3 C 97 % 2.87 C
144 16-02-2019 11:55:00 3.5 C 97 % 3.07 C
145 16-02-2019 12:00:00 3.7 C 97 % 3.27 C
146 16-02-2019 12:05:00 3.8 C 97 % 3.37 C
147 16-02-2019 12:10:00 3.9 C 97 % 3.47 C
148 16-02-2019 12:15:00 4.2 C 97 % 3.77 C
149 16-02-2019 12:20:00 4.4 C 97 % 3.97 C
150 16-02-2019 12:25:00 4.8 C 97 % 4.37 C
Sensor: Nr:Datum:Temp:Feuchte:Taupunkt:
Aussen-T/F 151 16-02-2019 12:30:00 5.1 C 97 % 4.66 C
152 16-02-2019 12:35:00 5.4 C 97 % 4.96 C
153 16-02-2019 12:40:00 5.8 C 97 % 5.36 C
154 16-02-2019 12:45:00 6 C 97 % 5.56 C
155 16-02-2019 12:50:00 6.2 C 97 % 5.76 C
156 16-02-2019 12:55:00 6.3 C 96 % 5.71 C
157 16-02-2019 13:00:00 6.4 C 94 % 5.51 C
158 16-02-2019 13:05:00 6.5 C 93 % 5.45 C
159 16-02-2019 13:10:00 6.7 C 93 % 5.65 C
160 16-02-2019 13:15:00 6.9 C 93 % 5.85 C
161 16-02-2019 13:20:00 7.2 C 92 % 5.99 C
162 16-02-2019 13:25:00 7.6 C 91 % 6.23 C
163 16-02-2019 13:30:00 7.9 C 90 % 6.36 C
164 16-02-2019 13:35:00 8.3 C 89 % 6.6 C
165 16-02-2019 13:40:00 8.7 C 89 % 6.99 C
166 16-02-2019 13:45:00 9 C 87 % 6.96 C
167 16-02-2019 13:50:00 9.3 C 85 % 6.91 C
168 16-02-2019 13:55:00 9.8 C 84 % 7.23 C
169 16-02-2019 14:00:00 10.1 C 82 % 7.17 C
170 16-02-2019 14:05:00 10.4 C 80 % 7.1 C
171 16-02-2019 14:10:00 10.6 C 79 % 7.11 C
172 16-02-2019 14:15:00 10.7 C 79 % 7.21 C
173 16-02-2019 14:20:00 10.7 C 78 % 7.03 C
174 16-02-2019 14:25:00 10.7 C 77 % 6.84 C
175 16-02-2019 14:30:00 10.7 C 77 % 6.84 C
Sensor: Nr:Datum:Temp:Feuchte:Taupunkt:
Aussen-T/F 176 16-02-2019 14:35:00 10.7 C 76 % 6.65 C
177 16-02-2019 14:40:00 10.7 C 76 % 6.65 C
178 16-02-2019 14:45:00 10.7 C 75 % 6.46 C
179 16-02-2019 14:50:00 10.9 C 73 % 6.26 C
180 16-02-2019 14:55:00 11.1 C 73 % 6.45 C
181 16-02-2019 15:00:00 11.3 C 72 % 6.44 C
182 16-02-2019 15:05:00 11.4 C 72 % 6.54 C
183 16-02-2019 15:10:00 11.6 C 71 % 6.53 C
184 16-02-2019 15:15:00 11.6 C 71 % 6.53 C
185 16-02-2019 15:20:00 11.7 C 72 % 6.83 C
186 16-02-2019 15:25:00 11.7 C 70 % 6.42 C
187 16-02-2019 15:30:00 11.8 C 70 % 6.51 C
188 16-02-2019 15:35:00 11.8 C 69 % 6.31 C
189 16-02-2019 15:40:00 11.9 C 68 % 6.19 C
190 16-02-2019 15:45:00 12 C 68 % 6.29 C
191 16-02-2019 15:50:00 12.1 C 68 % 6.38 C
192 16-02-2019 15:55:00 12.2 C 67 % 6.26 C
193 16-02-2019 16:00:00 12.3 C 67 % 6.36 C
194 16-02-2019 16:05:00 12.3 C 67 % 6.36 C
195 16-02-2019 16:10:00 12.2 C 67 % 6.26 C
196 16-02-2019 16:15:00 12.1 C 67 % 6.17 C
197 16-02-2019 16:20:00 11.9 C 67 % 5.98 C
198 16-02-2019 16:25:00 11.8 C 67 % 5.88 C
199 16-02-2019 16:30:00 11.8 C 67 % 5.88 C
200 16-02-2019 16:35:00 11.7 C 68 % 6 C
Sensor: Nr:Datum:Temp:Feuchte:Taupunkt:
Aussen-T/F 201 16-02-2019 16:40:00 11.7 C 67 % 5.78 C
202 16-02-2019 16:45:00 11.6 C 67 % 5.69 C
203 16-02-2019 16:50:00 11.6 C 68 % 5.9 C
204 16-02-2019 16:55:00 11.6 C 68 % 5.9 C
205 16-02-2019 17:00:00 11.5 C 69 % 6.02 C
206 16-02-2019 17:05:00 11.4 C 68 % 5.71 C
207 16-02-2019 17:10:00 11.3 C 69 % 5.83 C
208 16-02-2019 17:15:00 11.2 C 69 % 5.73 C
209 16-02-2019 17:20:00 11 C 69 % 5.54 C
210 16-02-2019 17:25:00 10.8 C 70 % 5.56 C
211 16-02-2019 17:30:00 10.7 C 70 % 5.46 C
212 16-02-2019 17:35:00 10.4 C 70 % 5.17 C
213 16-02-2019 17:40:00 10.3 C 71 % 5.28 C
214 16-02-2019 17:45:00 10.1 C 71 % 5.09 C
215 16-02-2019 17:50:00 9.9 C 72 % 5.1 C
216 16-02-2019 17:55:00 9.7 C 72 % 4.9 C
217 16-02-2019 18:00:00 9.5 C 73 % 4.91 C
218 16-02-2019 18:05:00 9.3 C 74 % 4.91 C
219 16-02-2019 18:10:00 9.2 C 75 % 5.01 C
220 16-02-2019 18:15:00 9 C 75 % 4.81 C
221 16-02-2019 18:20:00 8.9 C 76 % 4.91 C
222 16-02-2019 18:25:00 8.8 C 76 % 4.81 C
223 16-02-2019 18:30:00 8.7 C 77 % 4.9 C
224 16-02-2019 18:35:00 8.5 C 78 % 4.89 C
225 16-02-2019 18:40:00 8.4 C 78 % 4.79 C
Sensor: Nr:Datum:Temp:Feuchte:Taupunkt:
Aussen-T/F 226 16-02-2019 18:45:00 8.3 C 78 % 4.7 C
227 16-02-2019 18:50:00 8.2 C 78 % 4.6 C
228 16-02-2019 18:55:00 8.1 C 79 % 4.68 C
229 16-02-2019 19:00:00 8.1 C 79 % 4.68 C
230 16-02-2019 19:05:00 8 C 79 % 4.59 C
231 16-02-2019 19:10:00 7.8 C 80 % 4.57 C
232 16-02-2019 19:15:00 7.6 C 80 % 4.38 C
233 16-02-2019 19:20:00 7.4 C 81 % 4.36 C
234 16-02-2019 19:25:00 7.3 C 81 % 4.26 C
235 16-02-2019 19:30:00 7.2 C 82 % 4.34 C
236 16-02-2019 19:35:00 7.1 C 83 % 4.41 C
237 16-02-2019 19:40:00 7.1 C 83 % 4.41 C
238 16-02-2019 19:45:00 6.9 C 82 % 4.05 C
239 16-02-2019 19:50:00 6.7 C 81 % 3.68 C
240 16-02-2019 19:55:00 6.3 C 82 % 3.46 C
241 16-02-2019 20:00:00 6.2 C 83 % 3.53 C
242 16-02-2019 20:05:00 6.1 C 83 % 3.44 C
243 16-02-2019 20:10:00 6 C 83 % 3.34 C
244 16-02-2019 20:15:00 5.8 C 83 % 3.14 C
245 16-02-2019 20:20:00 5.6 C 84 % 3.12 C
246 16-02-2019 20:25:00 5.4 C 85 % 3.09 C
247 16-02-2019 20:30:00 5.4 C 85 % 3.09 C
248 16-02-2019 20:35:00 5.3 C 84 % 2.82 C
249 16-02-2019 20:40:00 5.1 C 84 % 2.63 C
250 16-02-2019 20:45:00 4.8 C 85 % 2.5 C
Sensor: Nr:Datum:Temp:Feuchte:Taupunkt:
Aussen-T/F 251 16-02-2019 20:50:00 4.7 C 86 % 2.56 C
252 16-02-2019 20:55:00 4.6 C 86 % 2.47 C
253 16-02-2019 21:00:00 4.3 C 86 % 2.17 C
254 16-02-2019 21:05:00 4.2 C 87 % 2.23 C
255 16-02-2019 21:10:00 3.9 C 87 % 1.94 C
256 16-02-2019 21:15:00 3.8 C 88 % 2 C
257 16-02-2019 21:20:00 3.7 C 89 % 2.06 C
258 16-02-2019 21:25:00 3.8 C 90 % 2.31 C
259 16-02-2019 21:30:00 3.7 C 89 % 2.06 C
260 16-02-2019 21:35:00 3.7 C 89 % 2.06 C
261 16-02-2019 21:40:00 3.6 C 89 % 1.96 C
262 16-02-2019 21:45:00 3.6 C 90 % 2.12 C
263 16-02-2019 21:50:00 3.5 C 90 % 2.02 C
264 16-02-2019 21:55:00 3.3 C 89 % 1.67 C
265 16-02-2019 22:00:00 3.2 C 90 % 1.72 C
266 16-02-2019 22:05:00 3.2 C 90 % 1.72 C
267 16-02-2019 22:10:00 2.9 C 90 % 1.43 C
268 16-02-2019 22:15:00 2.8 C 90 % 1.33 C
269 16-02-2019 22:20:00 2.6 C 90 % 1.13 C
270 16-02-2019 22:25:00 2.7 C 92 % 1.53 C
271 16-02-2019 22:30:00 2.8 C 92 % 1.63 C
272 16-02-2019 22:35:00 2.7 C 92 % 1.53 C
273 16-02-2019 22:40:00 2.8 C 93 % 1.78 C
274 16-02-2019 22:45:00 2.8 C 92 % 1.63 C
275 16-02-2019 22:50:00 2.7 C 92 % 1.53 C
Sensor: Nr:Datum:Temp:Feuchte:Taupunkt:
Aussen-T/F 276 16-02-2019 22:55:00 2.4 C 92 % 1.24 C
277 16-02-2019 23:00:00 2.3 C 92 % 1.14 C
278 16-02-2019 23:05:00 2.1 C 91 % 0.79 C
279 16-02-2019 23:10:00 2 C 92 % 0.84 C
280 16-02-2019 23:15:00 2.1 C 93 % 1.09 C
281 16-02-2019 23:20:00 2 C 93 % 0.99 C
282 16-02-2019 23:25:00 1.9 C 93 % 0.89 C
283 16-02-2019 23:30:00 1.8 C 93 % 0.79 C
284 16-02-2019 23:35:00 1.8 C 93 % 0.79 C
285 16-02-2019 23:40:00 1.9 C 94 % 1.04 C
286 16-02-2019 23:45:00 1.9 C 94 % 1.04 C
287 16-02-2019 23:50:00 1.8 C 94 % 0.94 C
288 16-02-2019 23:55:00 1.9 C 94 % 1.04 C
289 17-02-2019 00:00:00 1.9 C 94 % 1.04 C
290 17-02-2019 00:05:00 1.9 C 94 % 1.04 C
291 17-02-2019 00:10:00 1.8 C 94 % 0.94 C
292 17-02-2019 00:15:00 1.7 C 94 % 0.84 C
293 17-02-2019 00:20:00 1.6 C 94 % 0.74 C
294 17-02-2019 00:25:00 1.5 C 94 % 0.64 C
295 17-02-2019 00:30:00 1.6 C 94 % 0.74 C
296 17-02-2019 00:35:00 1.5 C 94 % 0.64 C
297 17-02-2019 00:40:00 1.3 C 94 % 0.44 C
298 17-02-2019 00:45:00 1.3 C 94 % 0.44 C
299 17-02-2019 00:50:00 1.3 C 94 % 0.44 C
300 17-02-2019 00:55:00 1.2 C 94 % 0.34 C
Sensor: Nr:Datum:Temp:Feuchte:Taupunkt:
Aussen-T/F 301 17-02-2019 01:00:00 1.2 C 94 % 0.34 C
302 17-02-2019 01:05:00 1.2 C 94 % 0.34 C
303 17-02-2019 01:10:00 1.2 C 94 % 0.34 C
304 17-02-2019 01:15:00 0.9 C 94 % 0.05 C
305 17-02-2019 01:20:00 0.8 C 94 % -0.05 C
306 17-02-2019 01:25:00 0.8 C 94 % -0.05 C
307 17-02-2019 01:30:00 0.8 C 94 % -0.05 C
308 17-02-2019 01:35:00 0.7 C 94 % -0.15 C
309 17-02-2019 01:40:00 0.6 C 95 % -0.11 C
310 17-02-2019 01:45:00 0.6 C 95 % -0.11 C
311 17-02-2019 01:50:00 0.8 C 95 % 0.09 C
312 17-02-2019 01:55:00 0.8 C 95 % 0.09 C
313 17-02-2019 02:00:00 0.7 C 95 % -0.01 C
314 17-02-2019 02:05:00 0.7 C 95 % -0.01 C
315 17-02-2019 02:10:00 0.6 C 95 % -0.11 C
316 17-02-2019 02:15:00 0.4 C 95 % -0.31 C
317 17-02-2019 02:20:00 0.4 C 95 % -0.31 C
318 17-02-2019 02:25:00 0.3 C 95 % -0.4 C
319 17-02-2019 02:30:00 0.3 C 95 % -0.4 C
320 17-02-2019 02:35:00 0.2 C 95 % -0.5 C
321 17-02-2019 02:40:00 0.2 C 95 % -0.5 C
322 17-02-2019 02:45:00 0.1 C 95 % -0.6 C
323 17-02-2019 02:50:00 0 C 95 % -0.7 C
324 17-02-2019 02:55:00 0.2 C 95 % -0.5 C
325 17-02-2019 03:00:00 0.3 C 96 % -0.26 C
Sensor: Nr:Datum:Temp:Feuchte:Taupunkt:
Aussen-T/F 326 17-02-2019 03:05:00 0.3 C 95 % -0.4 C
327 17-02-2019 03:10:00 0.2 C 95 % -0.5 C
328 17-02-2019 03:15:00 0.2 C 95 % -0.5 C
329 17-02-2019 03:20:00 0.1 C 95 % -0.6 C
330 17-02-2019 03:25:00 0 C 95 % -0.7 C
331 17-02-2019 03:30:00 -0.1 C 95 % -0.8 C
332 17-02-2019 03:35:00 -0.1 C 95 % -0.8 C
333 17-02-2019 03:40:00 0 C 95 % -0.7 C
334 17-02-2019 03:45:00 0.1 C 96 % -0.46 C
335 17-02-2019 03:50:00 0.1 C 96 % -0.46 C
336 17-02-2019 03:55:00 0 C 96 % -0.56 C
337 17-02-2019 04:00:00 -0.1 C 96 % -0.66 C
338 17-02-2019 04:05:00 -0.2 C 95 % -0.9 C
339 17-02-2019 04:10:00 -0.2 C 95 % -0.9 C
340 17-02-2019 04:15:00 -0.2 C 95 % -0.9 C
341 17-02-2019 04:20:00 -0.3 C 95 % -1 C
342 17-02-2019 04:25:00 -0.3 C 95 % -1 C
343 17-02-2019 04:30:00 -0.3 C 96 % -0.86 C
344 17-02-2019 04:35:00 -0.4 C 96 % -0.96 C
345 17-02-2019 04:40:00 -0.4 C 95 % -1.1 C
346 17-02-2019 04:45:00 -0.6 C 95 % -1.3 C
347 17-02-2019 04:50:00 -0.7 C 95 % -1.4 C
348 17-02-2019 04:55:00 -0.7 C 96 % -1.26 C
349 17-02-2019 05:00:00 -0.6 C 96 % -1.16 C
350 17-02-2019 05:05:00 -0.6 C 96 % -1.16 C
Sensor: Nr:Datum:Temp:Feuchte:Taupunkt:
Aussen-T/F 351 17-02-2019 05:10:00 -0.7 C 96 % -1.26 C
352 17-02-2019 05:15:00 -0.7 C 95 % -1.4 C
353 17-02-2019 05:20:00 -0.8 C 95 % -1.5 C
354 17-02-2019 05:25:00 -0.8 C 95 % -1.5 C
355 17-02-2019 05:30:00 -0.8 C 96 % -1.36 C
356 17-02-2019 05:35:00 -0.9 C 96 % -1.46 C
357 17-02-2019 05:40:00 -1 C 96 % -1.56 C
358 17-02-2019 05:45:00 -1.1 C 96 % -1.66 C
359 17-02-2019 05:50:00 -1.1 C 95 % -1.8 C
360 17-02-2019 05:55:00 -1.2 C 95 % -1.9 C
361 17-02-2019 06:00:00 -1.1 C 96 % -1.66 C
362 17-02-2019 06:05:00 -0.8 C 96 % -1.36 C
363 17-02-2019 06:10:00 -0.8 C 96 % -1.36 C
364 17-02-2019 06:15:00 -0.8 C 96 % -1.36 C
365 17-02-2019 06:20:00 -0.9 C 96 % -1.46 C
366 17-02-2019 06:25:00 -1.1 C 96 % -1.66 C
367 17-02-2019 06:30:00 -1.1 C 96 % -1.66 C
368 17-02-2019 06:35:00 -1.2 C 96 % -1.75 C
369 17-02-2019 06:40:00 -1.1 C 96 % -1.66 C
370 17-02-2019 06:45:00 -1 C 96 % -1.56 C
371 17-02-2019 06:50:00 -0.9 C 96 % -1.46 C
372 17-02-2019 06:55:00 -0.9 C 96 % -1.46 C
373 17-02-2019 07:00:00 -1 C 96 % -1.56 C
374 17-02-2019 07:05:00 -1.1 C 96 % -1.66 C
375 17-02-2019 07:10:00 -1.2 C 96 % -1.75 C
Sensor: Nr:Datum:Temp:Feuchte:Taupunkt:
Aussen-T/F 376 17-02-2019 07:15:00 -1.3 C 96 % -1.85 C
377 17-02-2019 07:20:00 -1.3 C 96 % -1.85 C
378 17-02-2019 07:25:00 -1.2 C 96 % -1.75 C
379 17-02-2019 07:30:00 -1.2 C 96 % -1.75 C
380 17-02-2019 07:35:00 -1.2 C 96 % -1.75 C
381 17-02-2019 07:40:00 -1.3 C 96 % -1.85 C
382 17-02-2019 07:45:00 -1.3 C 96 % -1.85 C
383 17-02-2019 07:50:00 -1.4 C 96 % -1.95 C
384 17-02-2019 07:55:00 -1.5 C 96 % -2.05 C
385 17-02-2019 08:00:00 -1.5 C 96 % -2.05 C
386 17-02-2019 08:05:00 -1.4 C 96 % -1.95 C
387 17-02-2019 08:10:00 -1.5 C 96 % -2.05 C
388 17-02-2019 08:15:00 -1.4 C 96 % -1.95 C
389 17-02-2019 08:20:00 -1.4 C 96 % -1.95 C
390 17-02-2019 08:25:00 -1.4 C 96 % -1.95 C
391 17-02-2019 08:30:00 -1.4 C 96 % -1.95 C
392 17-02-2019 08:35:00 -1.3 C 96 % -1.85 C
393 17-02-2019 08:40:00 -1.2 C 96 % -1.75 C
394 17-02-2019 08:45:00 -1.2 C 96 % -1.75 C
395 17-02-2019 08:50:00 -1.2 C 96 % -1.75 C
396 17-02-2019 08:55:00 -1.1 C 96 % -1.66 C
397 17-02-2019 09:00:00 -1 C 96 % -1.56 C
398 17-02-2019 09:05:00 -0.9 C 96 % -1.46 C
399 17-02-2019 09:10:00 -0.9 C 96 % -1.46 C
400 17-02-2019 09:15:00 -0.8 C 96 % -1.36 C
Sensor: Nr:Datum:Temp:Feuchte:Taupunkt:
Aussen-T/F 401 17-02-2019 09:20:00 -0.8 C 96 % -1.36 C
402 17-02-2019 09:25:00 -0.8 C 96 % -1.36 C
403 17-02-2019 09:30:00 -0.8 C 96 % -1.36 C
404 17-02-2019 09:35:00 -0.8 C 96 % -1.36 C
405 17-02-2019 09:40:00 -0.8 C 96 % -1.36 C
406 17-02-2019 09:45:00 -0.8 C 96 % -1.36 C
407 17-02-2019 09:50:00 -0.7 C 96 % -1.26 C
408 17-02-2019 09:55:00 -0.7 C 96 % -1.26 C
409 17-02-2019 10:00:00 -0.7 C 96 % -1.26 C
410 17-02-2019 10:05:00 -0.6 C 96 % -1.16 C
411 17-02-2019 10:10:00 -0.5 C 96 % -1.06 C
412 17-02-2019 10:15:00 -0.4 C 96 % -0.96 C
413 17-02-2019 10:20:00 -0.4 C 97 % -0.82 C
414 17-02-2019 10:25:00 -0.3 C 97 % -0.72 C
415 17-02-2019 10:30:00 -0.2 C 97 % -0.62 C
416 17-02-2019 10:35:00 -0.1 C 97 % -0.52 C
417 17-02-2019 10:40:00 0.1 C 97 % -0.32 C
418 17-02-2019 10:45:00 0.2 C 97 % -0.22 C
419 17-02-2019 10:50:00 0.3 C 97 % -0.12 C
420 17-02-2019 10:55:00 0.6 C 97 % 0.18 C
421 17-02-2019 11:00:00 0.7 C 97 % 0.28 C
422 17-02-2019 11:05:00 0.9 C 97 % 0.48 C
423 17-02-2019 11:10:00 1.1 C 97 % 0.68 C
424 17-02-2019 11:15:00 1.3 C 97 % 0.88 C
425 17-02-2019 11:20:00 1.6 C 97 % 1.18 C
Sensor: Nr:Datum:Temp:Feuchte:Taupunkt:
Aussen-T/F 426 17-02-2019 11:25:00 1.8 C 97 % 1.38 C
427 17-02-2019 11:30:00 2.1 C 97 % 1.67 C
428 17-02-2019 11:35:00 2.3 C 97 % 1.87 C
429 17-02-2019 11:40:00 2.5 C 97 % 2.07 C
430 17-02-2019 11:45:00 2.8 C 97 % 2.37 C
431 17-02-2019 11:50:00 2.9 C 97 % 2.47 C
432 17-02-2019 11:55:00 3.2 C 97 % 2.77 C
433 17-02-2019 12:00:00 3.3 C 97 % 2.87 C
434 17-02-2019 12:05:00 3.5 C 97 % 3.07 C
435 17-02-2019 12:10:00 3.7 C 97 % 3.27 C
436 17-02-2019 12:15:00 3.9 C 97 % 3.47 C
437 17-02-2019 12:20:00 4.2 C 97 % 3.77 C
438 17-02-2019 12:25:00 4.5 C 97 % 4.07 C
439 17-02-2019 12:30:00 4.8 C 98 % 4.51 C
440 17-02-2019 12:35:00 5.2 C 98 % 4.91 C
441 17-02-2019 12:40:00 5.6 C 98 % 5.31 C
442 17-02-2019 12:45:00 5.8 C 98 % 5.51 C
443 17-02-2019 12:50:00 6.1 C 98 % 5.81 C
444 17-02-2019 12:55:00 6.2 C 97 % 5.76 C
445 17-02-2019 13:00:00 6.3 C 98 % 6.01 C
446 17-02-2019 13:05:00 6.5 C 97 % 6.06 C
447 17-02-2019 13:10:00 6.7 C 97 % 6.26 C
448 17-02-2019 13:15:00 6.8 C 97 % 6.36 C
449 17-02-2019 13:20:00 7.1 C 97 % 6.66 C
450 17-02-2019 13:25:00 7.3 C 97 % 6.86 C
Sensor: Nr:Datum:Temp:Feuchte:Taupunkt:
Aussen-T/F 451 17-02-2019 13:30:00 7.6 C 97 % 7.16 C
452 17-02-2019 13:35:00 7.8 C 97 % 7.35 C
453 17-02-2019 13:40:00 8.1 C 97 % 7.65 C
454 17-02-2019 13:45:00 8.4 C 96 % 7.8 C
455 17-02-2019 13:50:00 8.7 C 95 % 7.94 C
456 17-02-2019 13:55:00 8.9 C 94 % 7.99 C
457 17-02-2019 14:00:00 9.1 C 92 % 7.87 C
458 17-02-2019 14:05:00 9.3 C 91 % 7.91 C
459 17-02-2019 14:10:00 9.5 C 89 % 7.78 C
460 17-02-2019 14:15:00 9.6 C 88 % 7.71 C
461 17-02-2019 14:20:00 9.7 C 87 % 7.64 C
462 17-02-2019 14:25:00 9.8 C 86 % 7.57 C
463 17-02-2019 14:30:00 9.9 C 85 % 7.5 C
464 17-02-2019 14:35:00 9.9 C 84 % 7.33 C
465 17-02-2019 14:40:00 10 C 84 % 7.43 C
466 17-02-2019 14:45:00 10.1 C 83 % 7.35 C
467 17-02-2019 14:50:00 10.1 C 83 % 7.35 C
468 17-02-2019 14:55:00 10.2 C 83 % 7.45 C
469 17-02-2019 15:00:00 10.2 C 82 % 7.27 C
470 17-02-2019 15:05:00 10.3 C 81 % 7.19 C
471 17-02-2019 15:10:00 10.5 C 79 % 7.02 C
472 17-02-2019 15:15:00 10.8 C 79 % 7.31 C
473 17-02-2019 15:20:00 11.1 C 79 % 7.6 C
474 17-02-2019 15:25:00 11.2 C 78 % 7.51 C
475 17-02-2019 15:30:00 11.3 C 78 % 7.61 C
Sensor: Nr:Datum:Temp:Feuchte:Taupunkt:
Aussen-T/F 476 17-02-2019 15:35:00 11.4 C 77 % 7.52 C
477 17-02-2019 15:40:00 11.6 C 75 % 7.33 C
478 17-02-2019 15:45:00 11.8 C 73 % 7.12 C
479 17-02-2019 15:50:00 12 C 73 % 7.32 C
480 17-02-2019 15:55:00 12.1 C 73 % 7.41 C
481 17-02-2019 16:00:00 12.2 C 71 % 7.1 C
482 17-02-2019 16:05:00 12.3 C 71 % 7.2 C
483 17-02-2019 16:10:00 12.3 C 71 % 7.2 C
484 17-02-2019 16:15:00 12.2 C 71 % 7.1 C
485 17-02-2019 16:20:00 12.1 C 71 % 7.01 C
486 17-02-2019 16:25:00 11.9 C 71 % 6.82 C
487 17-02-2019 16:30:00 11.8 C 71 % 6.72 C
488 17-02-2019 16:35:00 11.7 C 70 % 6.42 C
489 17-02-2019 16:40:00 11.7 C 72 % 6.83 C
490 17-02-2019 16:45:00 11.7 C 71 % 6.62 C
491 17-02-2019 16:50:00 11.7 C 72 % 6.83 C
492 17-02-2019 16:55:00 11.7 C 72 % 6.83 C
493 17-02-2019 17:00:00 11.6 C 71 % 6.53 C
494 17-02-2019 17:05:00 11.6 C 71 % 6.53 C
495 17-02-2019 17:10:00 11.4 C 71 % 6.34 C
496 17-02-2019 17:15:00 11.3 C 72 % 6.44 C
497 17-02-2019 17:20:00 11.2 C 72 % 6.35 C
498 17-02-2019 17:25:00 11.1 C 72 % 6.25 C
499 17-02-2019 17:30:00 11.1 C 73 % 6.45 C
500 17-02-2019 17:35:00 10.9 C 73 % 6.26 C
Sensor: Nr:Datum:Temp:Feuchte:Taupunkt:
Aussen-T/F 501 17-02-2019 17:40:00 10.8 C 73 % 6.16 C
502 17-02-2019 17:45:00 10.6 C 74 % 6.17 C
503 17-02-2019 17:50:00 10.3 C 74 % 5.88 C
504 17-02-2019 17:55:00 10.1 C 74 % 5.68 C
505 17-02-2019 18:00:00 9.8 C 75 % 5.59 C
506 17-02-2019 18:05:00 9.6 C 75 % 5.39 C
507 17-02-2019 18:10:00 9.3 C 75 % 5.1 C
508 17-02-2019 18:15:00 9 C 75 % 4.81 C
509 17-02-2019 18:20:00 8.8 C 76 % 4.81 C
510 17-02-2019 18:25:00 8.6 C 76 % 4.62 C
511 17-02-2019 18:30:00 8.4 C 76 % 4.42 C
512 17-02-2019 18:35:00 8.3 C 77 % 4.51 C
513 17-02-2019 18:40:00 8.1 C 77 % 4.32 C
514 17-02-2019 18:45:00 7.9 C 78 % 4.31 C
515 17-02-2019 18:50:00 7.7 C 78 % 4.11 C
516 17-02-2019 18:55:00 7.6 C 78 % 4.02 C
517 17-02-2019 19:00:00 7.4 C 78 % 3.82 C
518 17-02-2019 19:05:00 7.3 C 79 % 3.91 C
519 17-02-2019 19:10:00 7.3 C 80 % 4.09 C
520 17-02-2019 19:15:00 7.2 C 80 % 3.99 C
521 17-02-2019 19:20:00 7.1 C 80 % 3.89 C
522 17-02-2019 19:25:00 6.8 C 79 % 3.42 C
523 17-02-2019 19:30:00 6.6 C 81 % 3.58 C
524 17-02-2019 19:35:00 6.3 C 81 % 3.29 C
525 17-02-2019 19:40:00 6.3 C 81 % 3.29 C
Sensor: Nr:Datum:Temp:Feuchte:Taupunkt:
Aussen-T/F 526 17-02-2019 19:45:00 6.2 C 81 % 3.19 C
527 17-02-2019 19:50:00 6.2 C 81 % 3.19 C
528 17-02-2019 19:55:00 6.1 C 81 % 3.09 C
529 17-02-2019 20:00:00 6 C 82 % 3.17 C
530 17-02-2019 20:05:00 5.5 C 81 % 2.51 C
531 17-02-2019 20:10:00 5.2 C 83 % 2.56 C
532 17-02-2019 20:15:00 5.1 C 84 % 2.63 C
533 17-02-2019 20:20:00 4.9 C 84 % 2.43 C
534 17-02-2019 20:25:00 4.7 C 84 % 2.23 C
535 17-02-2019 20:30:00 4.4 C 85 % 2.11 C
536 17-02-2019 20:35:00 4.3 C 86 % 2.17 C
537 17-02-2019 20:40:00 4.2 C 87 % 2.23 C
538 17-02-2019 20:45:00 4.2 C 86 % 2.07 C
539 17-02-2019 20:50:00 4 C 86 % 1.88 C
540 17-02-2019 20:55:00 3.8 C 87 % 1.84 C
541 17-02-2019 21:00:00 3.6 C 87 % 1.64 C
542 17-02-2019 21:05:00 3.6 C 88 % 1.8 C
543 17-02-2019 21:10:00 3.8 C 89 % 2.16 C
544 17-02-2019 21:15:00 4.1 C 88 % 2.3 C
545 17-02-2019 21:20:00 4.2 C 87 % 2.23 C
546 17-02-2019 21:25:00 4.1 C 86 % 1.97 C
547 17-02-2019 21:30:00 3.8 C 86 % 1.68 C
548 17-02-2019 21:35:00 3.6 C 87 % 1.64 C
549 17-02-2019 21:40:00 3.5 C 88 % 1.7 C
550 17-02-2019 21:45:00 3.3 C 87 % 1.35 C
Sensor: Nr:Datum:Temp:Feuchte:Taupunkt:
Aussen-T/F 551 17-02-2019 21:50:00 3.2 C 88 % 1.41 C
552 17-02-2019 21:55:00 3 C 88 % 1.21 C
553 17-02-2019 22:00:00 2.8 C 88 % 1.02 C
554 17-02-2019 22:05:00 2.8 C 89 % 1.17 C
555 17-02-2019 22:10:00 2.7 C 89 % 1.07 C
556 17-02-2019 22:15:00 2.5 C 89 % 0.88 C
557 17-02-2019 22:20:00 2.5 C 90 % 1.03 C
558 17-02-2019 22:25:00 2.5 C 90 % 1.03 C
559 17-02-2019 22:30:00 2.4 C 90 % 0.93 C
560 17-02-2019 22:35:00 2.4 C 90 % 0.93 C
561 17-02-2019 22:40:00 2.2 C 89 % 0.58 C
562 17-02-2019 22:45:00 2 C 90 % 0.54 C
563 17-02-2019 22:50:00 1.9 C 91 % 0.59 C
564 17-02-2019 22:55:00 1.8 C 90 % 0.34 C
565 17-02-2019 23:00:00 1.8 C 91 % 0.49 C
566 17-02-2019 23:05:00 1.7 C 91 % 0.39 C
567 17-02-2019 23:10:00 1.7 C 91 % 0.39 C
568 17-02-2019 23:15:00 1.6 C 91 % 0.29 C
569 17-02-2019 23:20:00 1.7 C 92 % 0.54 C
570 17-02-2019 23:25:00 1.7 C 92 % 0.54 C
571 17-02-2019 23:30:00 1.8 C 92 % 0.64 C
572 17-02-2019 23:35:00 1.7 C 92 % 0.54 C
573 17-02-2019 23:40:00 1.7 C 92 % 0.54 C
574 17-02-2019 23:45:00 1.6 C 92 % 0.44 C
575 17-02-2019 23:50:00 1.6 C 92 % 0.44 C
Sensor: Nr:Datum:Temp:Feuchte:Taupunkt:
Aussen-T/F 576 17-02-2019 23:55:00 1.8 C 92 % 0.64 C
577 18-02-2019 00:00:00 1.7 C 92 % 0.54 C
578 18-02-2019 00:05:00 1.7 C 92 % 0.54 C
579 18-02-2019 00:10:00 1.8 C 92 % 0.64 C
580 18-02-2019 00:15:00 1.9 C 92 % 0.74 C
581 18-02-2019 00:20:00 1.7 C 91 % 0.39 C
582 18-02-2019 00:25:00 1.5 C 91 % 0.19 C
583 18-02-2019 00:30:00 1.4 C 91 % 0.1 C
584 18-02-2019 00:35:00 1.2 C 91 % -0.1 C
585 18-02-2019 00:40:00 1.3 C 92 % 0.15 C
586 18-02-2019 00:45:00 1.2 C 92 % 0.05 C
587 18-02-2019 00:50:00 1.1 C 92 % -0.05 C
588 18-02-2019 00:55:00 1.1 C 92 % -0.05 C
589 18-02-2019 01:00:00 0.9 C 92 % -0.25 C
590 18-02-2019 01:05:00 0.9 C 92 % -0.25 C
591 18-02-2019 01:10:00 0.9 C 93 % -0.1 C
592 18-02-2019 01:15:00 0.7 C 92 % -0.45 C
593 18-02-2019 01:20:00 0.5 C 92 % -0.65 C
594 18-02-2019 01:25:00 0.4 C 92 % -0.74 C
595 18-02-2019 01:30:00 0.4 C 93 % -0.6 C
596 18-02-2019 01:35:00 0.3 C 93 % -0.7 C
597 18-02-2019 01:40:00 0.3 C 93 % -0.7 C
598 18-02-2019 01:45:00 0.3 C 93 % -0.7 C
599 18-02-2019 01:50:00 0.2 C 93 % -0.79 C
600 18-02-2019 01:55:00 0.1 C 93 % -0.89 C
Sensor: Nr:Datum:Temp:Feuchte:Taupunkt:
Aussen-T/F 601 18-02-2019 02:00:00 0.1 C 93 % -0.89 C
602 18-02-2019 02:05:00 0 C 93 % -0.99 C
603 18-02-2019 02:10:00 0 C 93 % -0.99 C
604 18-02-2019 02:15:00 0.1 C 94 % -0.75 C
605 18-02-2019 02:20:00 0.1 C 94 % -0.75 C
606 18-02-2019 02:25:00 0.1 C 94 % -0.75 C
607 18-02-2019 02:30:00 0.1 C 94 % -0.75 C
608 18-02-2019 02:35:00 0.2 C 94 % -0.65 C
609 18-02-2019 02:40:00 0.2 C 94 % -0.65 C
610 18-02-2019 02:45:00 0.2 C 94 % -0.65 C
611 18-02-2019 02:50:00 0.1 C 94 % -0.75 C
612 18-02-2019 02:55:00 -0.2 C 94 % -1.05 C
613 18-02-2019 03:00:00 -0.3 C 94 % -1.15 C
614 18-02-2019 03:05:00 -0.3 C 94 % -1.15 C
615 18-02-2019 03:10:00 -0.3 C 94 % -1.15 C
616 18-02-2019 03:15:00 -0.3 C 94 % -1.15 C
617 18-02-2019 03:20:00 -0.4 C 94 % -1.25 C
618 18-02-2019 03:25:00 -0.4 C 94 % -1.25 C
619 18-02-2019 03:30:00 -0.4 C 94 % -1.25 C
620 18-02-2019 03:35:00 -0.4 C 94 % -1.25 C
621 18-02-2019 03:40:00 -0.4 C 95 % -1.1 C
622 18-02-2019 03:45:00 -0.5 C 94 % -1.34 C
623 18-02-2019 03:50:00 -0.6 C 94 % -1.44 C
624 18-02-2019 03:55:00 -0.7 C 94 % -1.54 C
625 18-02-2019 04:00:00 -0.7 C 94 % -1.54 C
Sensor: Nr:Datum:Temp:Feuchte:Taupunkt:
Aussen-T/F 626 18-02-2019 04:05:00 -0.8 C 94 % -1.64 C
627 18-02-2019 04:10:00 -0.8 C 94 % -1.64 C
628 18-02-2019 04:15:00 -0.8 C 94 % -1.64 C
629 18-02-2019 04:20:00 -0.9 C 94 % -1.74 C
630 18-02-2019 04:25:00 -0.8 C 95 % -1.5 C
631 18-02-2019 04:30:00 -0.7 C 95 % -1.4 C
632 18-02-2019 04:35:00 -0.7 C 95 % -1.4 C
633 18-02-2019 04:40:00 -0.7 C 95 % -1.4 C
634 18-02-2019 04:45:00 -0.7 C 95 % -1.4 C
635 18-02-2019 04:50:00 -0.8 C 95 % -1.5 C
636 18-02-2019 04:55:00 -0.9 C 95 % -1.6 C
637 18-02-2019 05:00:00 -1 C 95 % -1.7 C
638 18-02-2019 05:05:00 -1.1 C 95 % -1.8 C
639 18-02-2019 05:10:00 -1.1 C 95 % -1.8 C
640 18-02-2019 05:15:00 -1.2 C 95 % -1.9 C
641 18-02-2019 05:20:00 -1.2 C 95 % -1.9 C
642 18-02-2019 05:25:00 -1.3 C 95 % -2 C
643 18-02-2019 05:30:00 -1.2 C 95 % -1.9 C
644 18-02-2019 05:35:00 -1.2 C 95 % -1.9 C
645 18-02-2019 05:40:00 -1.2 C 95 % -1.9 C
646 18-02-2019 05:45:00 -1.3 C 95 % -2 C
647 18-02-2019 05:50:00 -1.3 C 95 % -2 C
648 18-02-2019 05:55:00 -1.5 C 95 % -2.19 C
649 18-02-2019 06:00:00 -1.5 C 95 % -2.19 C
650 18-02-2019 06:05:00 -1.4 C 95 % -2.1 C
Sensor: Nr:Datum:Temp:Feuchte:Taupunkt:
Aussen-T/F 651 18-02-2019 06:10:00 -1.4 C 95 % -2.1 C
652 18-02-2019 06:15:00 -1.4 C 95 % -2.1 C
653 18-02-2019 06:20:00 -1.6 C 95 % -2.29 C
654 18-02-2019 06:25:00 -1.4 C 95 % -2.1 C
655 18-02-2019 06:30:00 -1.4 C 95 % -2.1 C
656 18-02-2019 06:35:00 -1.4 C 95 % -2.1 C
657 18-02-2019 06:40:00 -1.6 C 95 % -2.29 C
658 18-02-2019 06:45:00 -1.7 C 95 % -2.39 C
659 18-02-2019 06:50:00 -1.6 C 95 % -2.29 C
660 18-02-2019 06:55:00 -1.3 C 95 % -2 C
661 18-02-2019 07:00:00 -1.3 C 96 % -1.85 C
662 18-02-2019 07:05:00 -1.3 C 95 % -2 C
663 18-02-2019 07:10:00 -1.5 C 95 % -2.19 C
664 18-02-2019 07:15:00 -1.7 C 95 % -2.39 C
665 18-02-2019 07:20:00 -1.7 C 95 % -2.39 C
666 18-02-2019 07:25:00 -1.6 C 95 % -2.29 C
667 18-02-2019 07:30:00 -1.6 C 95 % -2.29 C
668 18-02-2019 07:35:00 -1.7 C 95 % -2.39 C
669 18-02-2019 07:40:00 -1.8 C 95 % -2.49 C
670 18-02-2019 07:45:00 -1.8 C 95 % -2.49 C
671 18-02-2019 07:50:00 -1.9 C 95 % -2.59 C
672 18-02-2019 07:55:00 -1.9 C 95 % -2.59 C
673 18-02-2019 08:00:00 -1.9 C 95 % -2.59 C
674 18-02-2019 08:05:00 -1.9 C 95 % -2.59 C
675 18-02-2019 08:10:00 -1.9 C 95 % -2.59 C
Sensor: Nr:Datum:Temp:Feuchte:Taupunkt:
Aussen-T/F 676 18-02-2019 08:15:00 -1.9 C 95 % -2.59 C
677 18-02-2019 08:20:00 -1.9 C 95 % -2.59 C
678 18-02-2019 08:25:00 -1.8 C 95 % -2.49 C
679 18-02-2019 08:30:00 -1.8 C 95 % -2.49 C
680 18-02-2019 08:35:00 -1.7 C 96 % -2.25 C
681 18-02-2019 08:40:00 -1.4 C 96 % -1.95 C
682 18-02-2019 08:45:00 -1.2 C 96 % -1.75 C
683 18-02-2019 08:50:00 -1.1 C 96 % -1.66 C
684 18-02-2019 08:55:00 -1.1 C 96 % -1.66 C
685 18-02-2019 09:00:00 -0.9 C 96 % -1.46 C
686 18-02-2019 09:05:00 -0.6 C 96 % -1.16 C
687 18-02-2019 09:10:00 -0.5 C 96 % -1.06 C
688 18-02-2019 09:15:00 -0.6 C 96 % -1.16 C
689 18-02-2019 09:20:00 -0.6 C 96 % -1.16 C
690 18-02-2019 09:25:00 -0.5 C 96 % -1.06 C
691 18-02-2019 09:30:00 -0.4 C 96 % -0.96 C
692 18-02-2019 09:35:00 -0.4 C 96 % -0.96 C
693 18-02-2019 09:40:00 -0.5 C 96 % -1.06 C
694 18-02-2019 09:45:00 -0.6 C 96 % -1.16 C
695 18-02-2019 09:50:00 -0.6 C 96 % -1.16 C
696 18-02-2019 09:55:00 -0.6 C 96 % -1.16 C
697 18-02-2019 10:00:00 -0.5 C 96 % -1.06 C
698 18-02-2019 10:05:00 -0.5 C 96 % -1.06 C
699 18-02-2019 10:10:00 -0.4 C 96 % -0.96 C
700 18-02-2019 10:15:00 -0.3 C 96 % -0.86 C
Sensor: Nr:Datum:Temp:Feuchte:Taupunkt:
Aussen-T/F 701 18-02-2019 10:20:00 -0.1 C 96 % -0.66 C
702 18-02-2019 10:25:00 0.1 C 96 % -0.46 C
703 18-02-2019 10:30:00 0.2 C 96 % -0.36 C
704 18-02-2019 10:35:00 0.3 C 96 % -0.26 C
705 18-02-2019 10:40:00 0.5 C 96 % -0.06 C
706 18-02-2019 10:45:00 0.7 C 96 % 0.14 C
707 18-02-2019 10:50:00 1 C 97 % 0.58 C
708 18-02-2019 10:55:00 1.3 C 97 % 0.88 C
709 18-02-2019 11:00:00 1.6 C 97 % 1.18 C
710 18-02-2019 11:05:00 1.7 C 97 % 1.28 C
711 18-02-2019 11:10:00 1.9 C 97 % 1.48 C
712 18-02-2019 11:15:00 2.2 C 97 % 1.77 C
713 18-02-2019 11:20:00 2.4 C 97 % 1.97 C
714 18-02-2019 11:25:00 2.7 C 97 % 2.27 C
715 18-02-2019 11:30:00 3 C 97 % 2.57 C
716 18-02-2019 11:35:00 3.3 C 97 % 2.87 C
717 18-02-2019 11:40:00 3.6 C 97 % 3.17 C
718 18-02-2019 11:45:00 3.7 C 96 % 3.12 C
719 18-02-2019 11:50:00 3.9 C 96 % 3.32 C
720 18-02-2019 11:55:00 4.1 C 95 % 3.37 C
721 18-02-2019 12:00:00 4.2 C 95 % 3.47 C
722 18-02-2019 12:05:00 4.4 C 95 % 3.67 C
723 18-02-2019 12:10:00 4.7 C 95 % 3.97 C
724 18-02-2019 12:15:00 4.9 C 95 % 4.17 C
725 18-02-2019 12:20:00 5.3 C 95 % 4.57 C
Sensor: Nr:Datum:Temp:Feuchte:Taupunkt:
Aussen-T/F 726 18-02-2019 12:25:00 5.6 C 95 % 4.86 C
727 18-02-2019 12:30:00 6.1 C 95 % 5.36 C
728 18-02-2019 12:35:00 6.6 C 93 % 5.55 C
729 18-02-2019 12:40:00 7.1 C 92 % 5.89 C
730 18-02-2019 12:45:00 7.5 C 90 % 5.97 C
731 18-02-2019 12:50:00 7.9 C 88 % 6.04 C
732 18-02-2019 12:55:00 8.2 C 87 % 6.17 C
733 18-02-2019 13:00:00 8.3 C 86 % 6.1 C
734 18-02-2019 13:05:00 8.4 C 85 % 6.03 C
735 18-02-2019 13:10:00 8.6 C 84 % 6.05 C
736 18-02-2019 13:15:00 8.8 C 83 % 6.08 C
737 18-02-2019 13:20:00 9 C 83 % 6.27 C
738 18-02-2019 13:25:00 9.3 C 81 % 6.21 C
739 18-02-2019 13:30:00 9.7 C 81 % 6.6 C
740 18-02-2019 13:35:00 10 C 79 % 6.53 C
741 18-02-2019 13:40:00 10.3 C 78 % 6.64 C
742 18-02-2019 13:45:00 10.6 C 76 % 6.55 C
743 18-02-2019 13:50:00 10.9 C 75 % 6.65 C
744 18-02-2019 13:55:00 11.2 C 74 % 6.74 C
745 18-02-2019 14:00:00 11.5 C 73 % 6.84 C
746 18-02-2019 14:05:00 11.6 C 71 % 6.53 C
747 18-02-2019 14:10:00 11.7 C 71 % 6.62 C
748 18-02-2019 14:15:00 11.7 C 71 % 6.62 C
749 18-02-2019 14:20:00 11.6 C 71 % 6.53 C
750 18-02-2019 14:25:00 11.5 C 71 % 6.43 C
Sensor: Nr:Datum:Temp:Feuchte:Taupunkt:
Aussen-T/F 751 18-02-2019 14:30:00 11.3 C 72 % 6.44 C
752 18-02-2019 14:35:00 11.2 C 72 % 6.35 C
753 18-02-2019 14:40:00 11 C 73 % 6.35 C
754 18-02-2019 14:45:00 10.9 C 73 % 6.26 C
755 18-02-2019 14:50:00 11 C 73 % 6.35 C
756 18-02-2019 14:55:00 11.1 C 73 % 6.45 C
757 18-02-2019 15:00:00 11.1 C 73 % 6.45 C
758 18-02-2019 15:05:00 11.2 C 72 % 6.35 C
759 18-02-2019 15:10:00 11.4 C 71 % 6.34 C
760 18-02-2019 15:15:00 11.6 C 71 % 6.53 C
761 18-02-2019 15:20:00 11.7 C 69 % 6.21 C
762 18-02-2019 15:25:00 11.9 C 67 % 5.98 C
763 18-02-2019 15:30:00 12.2 C 65 % 5.82 C
764 18-02-2019 15:35:00 12.4 C 65 % 6.01 C
765 18-02-2019 15:40:00 12.6 C 66 % 6.42 C
766 18-02-2019 15:45:00 12.7 C 60 % 5.14 C
767 18-02-2019 15:50:00 12.9 C 62 % 5.8 C
768 18-02-2019 15:55:00 13 C 62 % 5.9 C
769 18-02-2019 16:00:00 12.9 C 62 % 5.8 C
770 18-02-2019 16:05:00 12.8 C 62 % 5.71 C
771 18-02-2019 16:10:00 12.6 C 61 % 5.29 C
772 18-02-2019 16:15:00 12.4 C 63 % 5.56 C
773 18-02-2019 16:20:00 12.2 C 62 % 5.14 C
774 18-02-2019 16:25:00 11.9 C 63 % 5.09 C
775 18-02-2019 16:30:00 11.7 C 65 % 5.35 C
Sensor: Nr:Datum:Temp:Feuchte:Taupunkt:
Aussen-T/F 776 18-02-2019 16:35:00 11.5 C 66 % 5.38 C
777 18-02-2019 16:40:00 11.3 C 67 % 5.4 C
778 18-02-2019 16:45:00 11.1 C 68 % 5.43 C
779 18-02-2019 16:50:00 10.9 C 68 % 5.23 C
780 18-02-2019 16:55:00 10.8 C 68 % 5.14 C
781 18-02-2019 17:00:00 10.8 C 68 % 5.14 C
782 18-02-2019 17:05:00 10.8 C 68 % 5.14 C
783 18-02-2019 17:10:00 10.8 C 69 % 5.35 C
784 18-02-2019 17:15:00 10.9 C 68 % 5.23 C
785 18-02-2019 17:20:00 10.9 C 68 % 5.23 C
786 18-02-2019 17:25:00 10.8 C 69 % 5.35 C
787 18-02-2019 17:30:00 10.6 C 70 % 5.36 C
788 18-02-2019 17:35:00 10.3 C 70 % 5.08 C
789 18-02-2019 17:40:00 10.1 C 70 % 4.89 C
790 18-02-2019 17:45:00 9.9 C 71 % 4.9 C
791 18-02-2019 17:50:00 9.7 C 72 % 4.9 C
792 18-02-2019 17:55:00 9.5 C 72 % 4.71 C
793 18-02-2019 18:00:00 9.3 C 73 % 4.72 C
794 18-02-2019 18:05:00 9.1 C 73 % 4.52 C
795 18-02-2019 18:10:00 8.9 C 73 % 4.33 C
796 18-02-2019 18:15:00 8.7 C 74 % 4.33 C
797 18-02-2019 18:20:00 8.5 C 74 % 4.14 C
798 18-02-2019 18:25:00 8.3 C 75 % 4.14 C
799 18-02-2019 18:30:00 8.3 C 76 % 4.33 C
800 18-02-2019 18:35:00 8.2 C 76 % 4.23 C
Sensor: Nr:Datum:Temp:Feuchte:Taupunkt:
Aussen-T/F 801 18-02-2019 18:40:00 8.1 C 76 % 4.13 C
802 18-02-2019 18:45:00 8 C 76 % 4.04 C
803 18-02-2019 18:50:00 7.9 C 76 % 3.94 C
804 18-02-2019 18:55:00 7.7 C 75 % 3.56 C
805 18-02-2019 19:00:00 7.5 C 76 % 3.55 C
806 18-02-2019 19:05:00 7.3 C 78 % 3.73 C
807 18-02-2019 19:10:00 7.2 C 79 % 3.81 C
808 18-02-2019 19:15:00 7.1 C 79 % 3.71 C
809 18-02-2019 19:20:00 6.9 C 80 % 3.7 C
810 18-02-2019 19:25:00 6.8 C 81 % 3.77 C
811 18-02-2019 19:30:00 6.8 C 81 % 3.77 C
812 18-02-2019 19:35:00 6.8 C 82 % 3.95 C
813 18-02-2019 19:40:00 6.9 C 81 % 3.87 C
814 18-02-2019 19:45:00 6.9 C 81 % 3.87 C
815 18-02-2019 19:50:00 6.9 C 81 % 3.87 C
816 18-02-2019 19:55:00 6.9 C 81 % 3.87 C
817 18-02-2019 20:00:00 6.8 C 80 % 3.6 C
818 18-02-2019 20:05:00 6.7 C 79 % 3.32 C
819 18-02-2019 20:10:00 6.6 C 79 % 3.23 C
820 18-02-2019 20:15:00 6.4 C 78 % 2.85 C
821 18-02-2019 20:20:00 6.1 C 79 % 2.74 C
822 18-02-2019 20:25:00 5.8 C 81 % 2.8 C
823 18-02-2019 20:30:00 5.5 C 81 % 2.51 C
824 18-02-2019 20:35:00 5.2 C 82 % 2.39 C
825 18-02-2019 20:40:00 4.9 C 82 % 2.09 C
Sensor: Nr:Datum:Temp:Feuchte:Taupunkt:
Aussen-T/F 826 18-02-2019 20:45:00 4.7 C 84 % 2.23 C
827 18-02-2019 20:50:00 4.6 C 85 % 2.3 C
828 18-02-2019 20:55:00 4.6 C 86 % 2.47 C
829 18-02-2019 21:00:00 4.6 C 86 % 2.47 C
830 18-02-2019 21:05:00 4.6 C 86 % 2.47 C
831 18-02-2019 21:10:00 4.4 C 86 % 2.27 C
832 18-02-2019 21:15:00 4.3 C 86 % 2.17 C
833 18-02-2019 21:20:00 4.3 C 86 % 2.17 C
834 18-02-2019 21:25:00 4.2 C 86 % 2.07 C
835 18-02-2019 21:30:00 4.2 C 86 % 2.07 C
836 18-02-2019 21:35:00 4 C 86 % 1.88 C
837 18-02-2019 21:40:00 3.9 C 86 % 1.78 C
838 18-02-2019 21:45:00 3.8 C 86 % 1.68 C
839 18-02-2019 21:50:00 3.6 C 86 % 1.48 C
840 18-02-2019 21:55:00 3.3 C 86 % 1.19 C
841 18-02-2019 22:00:00 3.2 C 87 % 1.25 C
842 18-02-2019 22:05:00 3 C 87 % 1.05 C
843 18-02-2019 22:10:00 3 C 88 % 1.21 C
844 18-02-2019 22:15:00 2.9 C 89 % 1.27 C
845 18-02-2019 22:20:00 2.9 C 89 % 1.27 C
846 18-02-2019 22:25:00 2.8 C 89 % 1.17 C
847 18-02-2019 22:30:00 2.7 C 89 % 1.07 C
848 18-02-2019 22:35:00 2.7 C 89 % 1.07 C
849 18-02-2019 22:40:00 2.7 C 89 % 1.07 C
850 18-02-2019 22:45:00 2.5 C 89 % 0.88 C
Sensor: Nr:Datum:Temp:Feuchte:Taupunkt:
Aussen-T/F 851 18-02-2019 22:50:00 2.4 C 90 % 0.93 C
852 18-02-2019 22:55:00 2.4 C 90 % 0.93 C
853 18-02-2019 23:00:00 2.3 C 90 % 0.83 C
854 18-02-2019 23:05:00 2.3 C 90 % 0.83 C
855 18-02-2019 23:10:00 2.2 C 91 % 0.89 C
856 18-02-2019 23:15:00 2.3 C 91 % 0.99 C
857 18-02-2019 23:20:00 2.3 C 91 % 0.99 C
858 18-02-2019 23:25:00 2.3 C 91 % 0.99 C
859 18-02-2019 23:30:00 2.2 C 91 % 0.89 C
860 18-02-2019 23:35:00 2.1 C 91 % 0.79 C
861 18-02-2019 23:40:00 2 C 91 % 0.69 C
862 18-02-2019 23:45:00 1.9 C 91 % 0.59 C
863 18-02-2019 23:50:00 1.9 C 91 % 0.59 C
864 18-02-2019 23:55:00 1.8 C 91 % 0.49 C

Legende:
   Min
   Max


Maximal/Minimal-Werte vom 16.02.2019 - 18.02.2019

Sensor Min Max Avg
Temp
(Aussen-T/F)
-2 °C
16-02-2019  07:55:00
13 °C
18-02-2019  15:55:00
3.51 °C
Feuchte
(Aussen-T/F)
60 %
18-02-2019  15:45:00
98 %
17-02-2019  12:30:00
88.46 %
Taupunkt
(Aussen-T/F)
-2.69 C
16-02-2019  07:55:00
7.99 C
17-02-2019  13:55:00
1.65 C

Die Daten stammen von einer Davis Vantage Pro 2 Wetter-Station und werden unter Linux mit der Software wview2wettercgi und aufbereitet. Alle Angaben erfolgen ohne Gewähr für ihre Vollständigkeit oder Richtigkeit.
Kontakt: Rainer Krienke krienke@uni-koblenz.de . Meine Webseiten an der Uni Koblenz oder privat.
Version: $Revision: 0.78 $